Time;durP1;ratioP1;P1;durP2;ratioP2;P2;SDS_P1;SDS_P2;PMS_P1;PMS_P2;Temp;Humidity;BMP_temperature;BMP_pressure;BME280_temperature;BME280_humidity;BME280_pressure;Samples;Min_cycle;Max_cycle;Signal;HPM_P1;HPM_P2
2022/09/06 00:01:16;;;;;;;4.47;2.05;;;;;;;10.81;61.86;100556.72;1679491;84;21145;-73
2022/09/06 00:03:44;;;;;;;2.27;1.50;;;;;;;10.77;62.10;100557.50;1666067;85;21144;-72
2022/09/06 00:06:14;;;;;;;2.75;1.80;;;;;;;10.71;62.24;100557.28;1659097;85;21186;-74
2022/09/06 00:08:41;;;;;;;2.20;1.52;;;;;;;10.66;62.26;100559.03;1673035;83;21088;-72
2022/09/06 00:11:08;;;;;;;4.08;1.67;;;;;;;10.63;62.32;100562.00;1672031;84;21196;-70
2022/09/06 00:13:34;;;;;;;2.58;1.57;;;;;;;10.59;62.33;100559.30;1671885;84;21996;-71
2022/09/06 00:16:18;;;;;;;4.55;1.67;;;;;;;10.56;62.47;100558.26;1675413;84;21102;-71
2022/09/06 00:18:45;;;;;;;3.15;1.67;;;;;;;10.52;62.63;100565.68;1673937;85;21044;-72
2022/09/06 00:21:19;;;;;;;3.47;1.70;;;;;;;10.49;62.70;100557.17;1673279;84;21514;-71
2022/09/06 00:23:46;;;;;;;4.08;1.50;;;;;;;10.46;62.72;100560.97;1661009;84;21082;-73
2022/09/06 00:26:13;;;;;;;4.05;2.15;;;;;;;10.42;62.88;100557.77;1671548;84;21102;-73
2022/09/06 00:28:39;;;;;;;2.80;1.70;;;;;;;10.40;63.04;100557.08;1660914;84;21822;-72
2022/09/06 00:31:16;;;;;;;2.77;1.65;;;;;;;10.39;63.27;100555.42;1677651;83;21049;-73
2022/09/06 00:33:43;;;;;;;2.02;1.62;;;;;;;10.37;63.47;100560.05;1657498;86;21503;-75
2022/09/06 00:36:11;;;;;;;4.33;2.15;;;;;;;10.35;63.48;100558.50;1686127;83;21081;-71
2022/09/06 00:38:38;;;;;;;3.52;2.27;;;;;;;10.32;63.45;100549.52;1680606;83;21662;-73
2022/09/06 00:41:06;;;;;;;3.35;1.95;;;;;;;10.31;63.63;100555.80;1677053;83;21046;-72
2022/09/06 00:43:32;;;;;;;3.37;2.00;;;;;;;10.29;63.64;100553.74;1666299;85;21046;-73
2022/09/06 00:45:59;;;;;;;5.62;1.65;;;;;;;10.26;63.60;100557.54;1668750;86;21022;-72
2022/09/06 00:48:26;;;;;;;2.35;1.50;;;;;;;10.22;63.69;100549.02;1641181;85;21633;-73
2022/09/06 00:50:56;;;;;;;3.37;1.80;;;;;;;10.18;63.91;100547.64;1667313;84;21261;-73
2022/09/06 00:53:23;;;;;;;2.80;1.98;;;;;;;10.16;64.02;100544.77;1681329;84;21412;-72
2022/09/06 00:55:50;;;;;;;3.42;1.75;;;;;;;10.14;64.17;100551.58;1639155;85;21057;-72
2022/09/06 00:58:16;;;;;;;3.67;1.82;;;;;;;10.12;64.24;100552.22;1706543;82;21564;-72
2022/09/06 01:00:46;;;;;;;5.08;2.15;;;;;;;10.06;64.44;100550.62;1711634;82;21012;-73
2022/09/06 01:03:13;;;;;;;3.60;1.80;;;;;;;9.98;64.58;100546.86;1711422;82;21386;-73
2022/09/06 01:06:11;;;;;;;2.62;1.50;;;;;;;9.95;64.84;100549.81;1715711;83;21045;-72
2022/09/06 01:08:59;;;;;;;2.72;1.75;;;;;;;9.90;64.96;100549.41;1713476;82;21058;-73
2022/09/06 01:11:46;;;;;;;2.75;1.87;;;;;;;9.84;65.25;100549.48;1714550;83;21042;-72
2022/09/06 01:14:27;;;;;;;2.95;1.92;;;;;;;9.78;65.45;100555.37;1714211;82;21182;-74
2022/09/06 01:17:29;;;;;;;3.37;1.40;;;;;;;9.73;65.72;100552.30;1714789;82;21306;-72
2022/09/06 01:20:19;;;;;;;2.05;1.85;;;;;;;9.63;65.99;100552.81;1715563;83;21050;-72
2022/09/06 01:23:07;;;;;;;3.12;1.45;;;;;;;9.55;66.15;100552.20;1714984;83;21045;-70
2022/09/06 01:26:13;;;;;;;1.75;1.40;;;;;;;9.63;66.14;100554.14;1714552;83;21042;-72
2022/09/06 01:28:42;;;;;;;2.77;1.65;;;;;;;9.80;65.86;100558.72;1713372;82;21042;-73
2022/09/06 01:31:34;;;;;;;3.85;1.60;;;;;;;9.80;65.67;100555.23;1693486;82;21096;-72
2022/09/06 01:34:27;;;;;;;2.58;1.52;;;;;;;9.80;65.59;100562.70;1714462;82;21022;-73
2022/09/06 01:37:01;;;;;;;2.58;2.05;;;;;;;9.82;65.56;100557.25;1694655;83;21072;-71
2022/09/06 01:39:30;;;;;;;3.62;1.87;;;;;;;9.84;65.44;100559.27;1714000;82;21069;-72
2022/09/06 01:41:58;;;;;;;2.27;1.90;;;;;;;9.87;65.47;100559.47;1689366;83;21041;-73
2022/09/06 01:44:25;;;;;;;4.62;2.00;;;;;;;9.87;65.52;100562.12;1711447;82;21211;-73
2022/09/06 01:47:05;;;;;;;2.83;1.90;;;;;;;9.85;65.61;100560.96;1715138;82;21102;-71
2022/09/06 01:49:58;;;;;;;4.30;2.40;;;;;;;9.79;65.76;100565.48;1714211;82;21061;-70
2022/09/06 01:52:52;;;;;;;4.05;2.25;;;;;;;9.69;66.05;100566.00;1700004;82;21169;-73
2022/09/06 01:56:07;;;;;;;3.42;2.30;;;;;;;9.53;66.51;100560.78;1697467;83;21015;-71
2022/09/06 01:59:14;;;;;;;5.05;2.60;;;;;;;9.41;67.23;100564.58;1695658;82;21254;-72
2022/09/06 02:01:50;;;;;;;3.67;2.42;;;;;;;9.21;67.72;100564.58;1686648;84;21078;-71
2022/09/06 02:04:37;;;;;;;5.62;2.58;;;;;;;9.11;68.18;100566.37;1681721;84;21616;-70
2022/09/06 02:07:21;;;;;;;5.10;2.00;;;;;;;9.03;68.48;100570.20;1677248;83;21280;-72
2022/09/06 02:10:05;;;;;;;2.77;2.12;;;;;;;9.10;68.49;100572.66;1687336;84;21151;-72
2022/09/06 02:12:35;;;;;;;3.72;2.55;;;;;;;9.21;68.54;100575.19;1687508;84;21014;-73
2022/09/06 02:15:12;;;;;;;3.25;2.60;;;;;;;9.13;68.79;100579.00;1686835;83;21047;-70
2022/09/06 02:17:44;;;;;;;3.85;2.67;;;;;;;9.07;68.98;100583.53;1670583;83;21076;-73
2022/09/06 02:20:21;;;;;;;4.17;3.25;;;;;;;9.04;69.13;100587.30;1688353;85;21082;-73
2022/09/06 02:22:48;;;;;;;5.97;3.00;;;;;;;9.00;69.33;100586.37;1675619;83;21147;-74
2022/09/06 02:25:32;;;;;;;4.35;2.98;;;;;;;8.91;69.73;100588.54;1685585;83;21802;-72
2022/09/06 02:27:59;;;;;;;;;;;;;;;8.75;70.12;100579.30;1673099;83;21047;-72
2022/09/06 02:30:25;;;;;;;5.40;3.37;;;;;;;8.66;70.57;100590.21;1687894;84;20183;-73
2022/09/06 02:32:59;;;;;;;3.90;3.00;;;;;;;8.58;71.00;100587.90;1686871;84;21057;-72
2022/09/06 02:35:25;;;;;;;5.97;3.83;;;;;;;8.59;71.06;100579.80;1686909;84;21041;-71
2022/09/06 02:37:52;;;;;;;3.80;2.90;;;;;;;8.73;71.00;100586.55;1688292;84;21046;-71
2022/09/06 02:40:18;;;;;;;5.87;2.77;;;;;;;8.73;71.17;100585.23;1684888;83;21073;-72
2022/09/06 02:42:45;;;;;;;4.70;3.00;;;;;;;8.67;71.40;100585.73;1660024;83;21075;-75
2022/09/06 02:45:11;;;;;;;5.25;3.25;;;;;;;8.63;71.66;100585.66;1683883;84;21050;-73
2022/09/06 02:47:38;;;;;;;5.03;3.70;;;;;;;8.57;71.98;100586.20;1685509;84;21129;-72
2022/09/06 02:50:07;;;;;;;4.97;3.80;;;;;;;8.49;72.26;100581.58;1685837;83;21248;-72
2022/09/06 02:52:33;;;;;;;5.35;3.65;;;;;;;8.39;72.38;100588.13;1686321;84;20990;-69
2022/09/06 02:55:00;;;;;;;6.70;3.30;;;;;;;8.33;72.53;100583.38;1687515;84;21097;-72
2022/09/06 02:57:26;;;;;;;5.62;3.55;;;;;;;8.40;72.55;100579.70;1690005;83;21071;-70
2022/09/06 02:59:53;;;;;;;6.95;4.08;;;;;;;8.47;72.50;100579.55;1702930;82;21084;-70
2022/09/06 03:02:19;;;;;;;6.53;3.67;;;;;;;8.41;72.62;100584.03;1734494;80;21807;-70
2022/09/06 03:04:46;;;;;;;4.50;3.30;;;;;;;8.34;72.97;100590.83;1741982;81;21062;-70
2022/09/06 03:07:12;;;;;;;5.28;3.40;;;;;;;8.28;73.10;100586.89;1740160;80;21057;-72
2022/09/06 03:09:40;;;;;;;5.55;3.55;;;;;;;8.26;73.13;100589.67;1738027;81;21558;-73
2022/09/06 03:12:07;;;;;;;4.22;3.25;;;;;;;8.27;73.09;100594.50;1742105;81;21543;-71
2022/09/06 03:14:34;;;;;;;6.20;3.62;;;;;;;8.28;73.08;100594.84;1743023;80;21150;-71
2022/09/06 03:17:02;;;;;;;5.25;2.98;;;;;;;8.33;72.98;100590.48;1743269;82;21510;-73
2022/09/06 03:19:29;;;;;;;6.25;3.90;;;;;;;8.46;72.69;100595.94;1741783;80;21001;-72
2022/09/06 03:21:56;;;;;;;6.97;3.52;;;;;;;8.49;72.68;100598.80;1737229;82;21121;-72
2022/09/06 03:24:22;;;;;;;6.90;2.92;;;;;;;8.49;72.66;100588.20;1741866;81;21048;-73
2022/09/06 03:26:49;;;;;;;6.00;3.40;;;;;;;8.49;72.63;100597.96;1742244;80;21364;-72
2022/09/06 03:29:15;;;;;;;5.20;3.80;;;;;;;8.45;72.70;100602.69;1743352;82;21089;-72
2022/09/06 03:31:42;;;;;;;7.67;3.58;;;;;;;8.38;72.70;100597.06;1742321;81;21061;-72
2022/09/06 03:34:09;;;;;;;5.83;3.27;;;;;;;8.31;72.80;100601.20;1741380;81;21042;-72
2022/09/06 03:36:36;;;;;;;7.70;3.40;;;;;;;8.24;72.90;100601.38;1708930;83;21556;-72
2022/09/06 03:39:03;;;;;;;6.45;3.27;;;;;;;8.22;73.06;100605.96;1683252;83;21124;-73
2022/09/06 03:41:29;;;;;;;5.03;3.35;;;;;;;8.27;72.99;100601.12;1692252;83;21074;-72
2022/09/06 03:43:55;;;;;;;5.35;3.75;;;;;;;8.44;72.71;100608.47;1695008;83;21259;-71
2022/09/06 03:46:22;;;;;;;6.97;3.45;;;;;;;8.43;72.58;100606.78;1693873;83;21062;-70
2022/09/06 03:48:49;;;;;;;3.67;3.00;;;;;;;8.35;72.57;100603.94;1692347;84;21114;-70
2022/09/06 03:51:15;;;;;;;5.87;3.35;;;;;;;8.32;72.64;100612.63;1695251;84;21210;-73
2022/09/06 03:53:42;;;;;;;8.25;3.92;;;;;;;8.28;72.55;100612.05;1741684;81;20997;-71
2022/09/06 03:56:09;;;;;;;6.10;4.47;;;;;;;8.23;72.48;100610.30;1739695;82;21018;-71
2022/09/06 03:58:36;;;;;;;6.45;3.98;;;;;;;8.23;72.51;100614.27;1743372;81;21528;-72
2022/09/06 04:01:09;;;;;;;8.90;3.72;;;;;;;8.27;72.40;100618.33;1749953;81;21566;-71
2022/09/06 04:03:35;;;;;;;7.30;3.72;;;;;;;8.30;72.14;100622.02;1747214;80;21316;-70
2022/09/06 04:06:03;;;;;;;8.45;3.95;;;;;;;8.29;71.96;100623.00;1746770;80;21069;-72
2022/09/06 04:08:30;;;;;;;6.20;3.50;;;;;;;8.43;71.57;100629.78;1750712;81;21036;-71
2022/09/06 04:10:57;;;;;;;7.95;4.72;;;;;;;8.51;71.27;100626.47;1746792;81;21028;-72
2022/09/06 04:13:27;;;;;;;7.72;4.53;;;;;;;8.49;71.12;100627.92;1752916;80;21117;-69
2022/09/06 04:15:54;;;;;;;9.93;4.33;;;;;;;8.56;70.80;100631.73;1751074;81;21269;-73
2022/09/06 04:18:21;;;;;;;7.78;4.20;;;;;;;8.63;70.61;100632.02;1745904;80;21677;-71
2022/09/06 04:20:49;;;;;;;7.12;4.25;;;;;;;8.73;70.28;100633.37;1750577;81;21072;-73
2022/09/06 04:23:16;;;;;;;7.55;4.55;;;;;;;8.81;69.70;100636.21;1751355;80;21565;-71
2022/09/06 04:25:47;;;;;;;8.80;4.65;;;;;;;8.88;69.37;100633.84;1752585;80;21085;-71
2022/09/06 04:28:14;;;;;;;8.13;4.45;;;;;;;8.95;69.18;100640.30;1745952;81;21143;-71
2022/09/06 04:30:41;;;;;;;9.13;5.08;;;;;;;9.03;68.76;100643.09;1747697;80;21081;-71
2022/09/06 04:33:09;;;;;;;9.08;5.17;;;;;;;9.11;68.54;100635.78;1745895;80;20977;-73
2022/09/06 04:35:36;;;;;;;11.85;6.62;;;;;;;9.19;68.15;100636.80;1744687;81;21132;-72
2022/09/06 04:38:03;;;;;;;10.73;6.17;;;;;;;9.25;67.98;100632.27;1750346;80;21101;-72
2022/09/06 04:40:30;;;;;;;9.90;6.12;;;;;;;9.35;67.78;100636.71;1749096;80;21205;-71
2022/09/06 04:42:56;;;;;;;11.45;6.22;;;;;;;9.41;67.54;100638.84;1746647;80;21018;-72
2022/09/06 04:45:23;;;;;;;9.60;5.67;;;;;;;9.47;67.46;100641.42;1750853;81;21056;-73
2022/09/06 04:47:50;;;;;;;9.98;6.67;;;;;;;9.53;67.08;100637.71;1755692;80;21049;-71
2022/09/06 04:50:16;;;;;;;10.15;6.65;;;;;;;9.58;66.82;100634.16;1750228;81;21152;-71
2022/09/06 04:52:45;;;;;;;10.63;6.65;;;;;;;9.63;66.74;100638.54;1750113;80;21237;-72
2022/09/06 04:55:13;;;;;;;12.15;6.87;;;;;;;9.72;66.49;100641.35;1735924;81;21018;-77
2022/09/06 04:57:40;;;;;;;9.20;6.42;;;;;;;9.79;66.38;100640.66;1749322;81;21073;-73
2022/09/06 05:00:08;;;;;;;10.82;7.42;;;;;;;9.87;66.09;100635.11;1739372;81;21525;-73
2022/09/06 05:02:35;;;;;;;12.50;7.58;;;;;;;9.96;65.81;100639.07;1741946;80;21054;-73
2022/09/06 05:05:03;;;;;;;12.33;7.20;;;;;;;10.09;65.56;100638.78;1742453;82;21138;-73
2022/09/06 05:07:31;;;;;;;11.33;7.40;;;;;;;10.20;65.19;100637.79;1742875;81;20990;-72
2022/09/06 05:09:58;;;;;;;12.03;8.23;;;;;;;10.27;64.74;100631.40;1741114;80;21100;-74
2022/09/06 05:12:26;;;;;;;9.30;6.83;;;;;;;10.38;64.76;100636.57;1737310;80;21122;-73
2022/09/06 05:14:53;;;;;;;13.32;8.05;;;;;;;10.47;64.43;100637.03;1738544;82;21027;-75
2022/09/06 05:17:20;;;;;;;10.08;6.90;;;;;;;10.60;64.08;100640.20;1741455;82;21144;-73
2022/09/06 05:19:47;;;;;;;10.55;7.03;;;;;;;10.75;63.83;100643.19;1742313;80;21026;-74
2022/09/06 05:22:13;;;;;;;10.58;7.05;;;;;;;10.92;63.24;100642.91;1742883;82;21046;-74
2022/09/06 05:24:40;;;;;;;10.13;7.42;;;;;;;11.06;62.67;100643.39;1741699;80;21065;-73
2022/09/06 05:27:07;;;;;;;11.20;7.67;;;;;;;11.15;62.36;100641.17;1743556;82;21061;-74
2022/09/06 05:29:33;;;;;;;9.33;7.22;;;;;;;11.24;62.04;100640.75;1742475;81;22227;-75
2022/09/06 05:32:01;;;;;;;9.58;6.40;;;;;;;11.31;61.83;100641.83;1733071;80;21012;-72
2022/09/06 05:34:28;;;;;;;9.28;5.67;;;;;;;11.41;61.73;100647.44;1738696;81;21533;-73
2022/09/06 05:36:55;;;;;;;9.73;6.10;;;;;;;11.51;61.16;100634.05;1704967;83;22011;-74
2022/09/06 05:39:21;;;;;;;11.80;5.97;;;;;;;11.59;60.85;100632.79;1694737;83;21530;-74
2022/09/06 05:41:48;;;;;;;7.87;6.08;;;;;;;11.70;60.33;100633.53;1689907;83;21533;-73
2022/09/06 05:44:15;;;;;;;9.63;5.08;;;;;;;11.80;59.83;100623.16;1738106;80;21072;-75
2022/09/06 05:46:44;;;;;;;7.55;5.33;;;;;;;11.93;59.44;100628.59;1741838;81;21036;-74
2022/09/06 05:49:12;;;;;;;8.58;4.78;;;;;;;12.04;59.05;100630.17;1737262;81;21527;-74
2022/09/06 05:51:39;;;;;;;8.18;4.35;;;;;;;12.14;58.85;100630.91;1740704;81;21581;-74
2022/09/06 05:54:06;;;;;;;7.58;4.22;;;;;;;12.25;58.17;100631.15;1739284;81;21247;-74
2022/09/06 05:56:33;;;;;;;8.05;4.20;;;;;;;12.36;57.78;100626.86;1738713;81;21082;-73
2022/09/06 05:59:00;;;;;;;10.53;4.28;;;;;;;12.45;57.30;100625.09;1741744;81;21565;-73
2022/09/06 06:01:28;;;;;;;6.08;3.62;;;;;;;12.52;56.96;100627.47;1739146;80;20963;-80
2022/09/06 06:03:58;;;;;;;7.67;3.90;;;;;;;12.58;56.76;100631.65;1734665;82;21080;-81
2022/09/06 06:06:26;;;;;;;7.10;3.87;;;;;;;12.63;56.27;100628.49;1741323;80;21157;-79
2022/09/06 06:08:53;;;;;;;6.97;4.40;;;;;;;12.70;55.81;100635.38;1739395;80;21088;-75
2022/09/06 06:11:19;;;;;;;9.73;4.45;;;;;;;12.75;55.68;100636.56;1739385;80;21014;-78
2022/09/06 06:13:46;;;;;;;7.47;3.87;;;;;;;12.81;55.44;100624.93;1741318;80;20997;-80
2022/09/06 06:16:15;;;;;;;5.92;3.02;;;;;;;12.89;55.03;100633.78;1736170;80;21073;-81
2022/09/06 06:18:43;;;;;;;6.37;2.55;;;;;;;12.94;54.87;100628.80;1743002;82;21114;-80
2022/09/06 06:21:23;;;;;;;7.70;3.25;;;;;;;13.04;54.31;100634.48;1730677;80;21307;-80
2022/09/06 06:23:53;;;;;;;4.97;3.22;;;;;;;13.10;54.47;100635.19;1744841;80;21028;-79
2022/09/06 06:26:21;;;;;;;4.17;2.80;;;;;;;13.17;53.82;100631.70;1734652;80;21064;-80
2022/09/06 06:28:48;;;;;;;5.10;2.67;;;;;;;13.27;53.69;100637.37;1736530;80;21063;-80
2022/09/06 06:31:15;;;;;;;4.17;2.40;;;;;;;13.32;52.94;100633.75;1713373;83;21304;-78
2022/09/06 06:33:41;;;;;;;4.37;2.95;;;;;;;13.36;52.69;100631.09;1683411;83;21015;-77
2022/09/06 06:36:20;;;;;;;4.70;2.40;;;;;;;13.40;52.90;100631.59;1676309;84;21144;-82
2022/09/06 06:38:48;;;;;;;3.10;2.25;;;;;;;13.47;52.58;100628.10;1671219;84;21098;-80
2022/09/06 06:41:17;;;;;;;5.03;2.62;;;;;;;13.55;52.36;100637.45;1685291;85;21065;-82
2022/09/06 06:43:44;;;;;;;2.33;1.80;;;;;;;13.60;52.10;100631.62;1701768;83;21308;-79
2022/09/06 06:46:13;;;;;;;3.55;2.60;;;;;;;13.70;52.04;100642.14;1705796;82;21029;-76
2022/09/06 06:48:42;;;;;;;3.60;2.17;;;;;;;13.80;51.68;100635.30;1713790;82;21061;-76
2022/09/06 06:51:10;;;;;;;3.77;2.30;;;;;;;13.89;51.33;100636.46;1706104;82;21069;-75
2022/09/06 06:53:39;;;;;;;4.42;2.10;;;;;;;13.94;51.00;100638.11;1651643;85;21050;-75
2022/09/06 06:56:26;;;;;;;4.17;2.10;;;;;;;13.98;51.08;100637.78;1693710;82;21279;-74
2022/09/06 06:58:56;;;;;;;4.53;2.47;;;;;;;14.06;50.56;100644.45;1692504;82;21089;-73
2022/09/06 07:01:23;;;;;;;5.12;2.33;;;;;;;14.10;50.42;100643.10;1694893;83;21006;-75
2022/09/06 07:03:50;;;;;;;2.47;2.08;;;;;;;14.11;50.68;100644.79;1694780;82;21116;-75
2022/09/06 07:06:17;;;;;;;2.37;1.90;;;;;;;14.17;50.67;100641.44;1694760;82;21365;-74
2022/09/06 07:08:43;;;;;;;2.25;1.60;;;;;;;14.27;50.46;100646.59;1744717;80;21156;-74
2022/09/06 07:11:11;;;;;;;5.20;2.15;;;;;;;14.35;50.05;100638.06;1741321;80;21047;-74
2022/09/06 07:13:38;;;;;;;3.40;2.40;;;;;;;14.42;50.07;100641.39;1744048;81;21053;-72
2022/09/06 07:16:22;;;;;;;6.05;2.47;;;;;;;14.48;50.47;100638.02;1739989;80;21028;-73
2022/09/06 07:18:52;;;;;;;3.37;2.75;;;;;;;14.62;50.13;100641.84;1742758;82;21033;-75
2022/09/06 07:21:25;;;;;;;4.55;3.42;;;;;;;14.75;49.80;100642.96;1730449;82;21752;-75
2022/09/06 07:23:51;;;;;;;5.62;3.17;;;;;;;14.85;49.91;100637.91;1744142;80;21032;-74
2022/09/06 07:26:20;;;;;;;5.35;3.35;;;;;;;14.91;49.89;100638.55;1739778;81;21521;-73
2022/09/06 07:28:46;;;;;;;4.25;3.25;;;;;;;15.03;49.72;100640.36;1743464;80;21056;-73
2022/09/06 07:31:14;;;;;;;8.70;4.53;;;;;;;15.16;49.63;100638.43;1742775;82;21085;-75
2022/09/06 07:33:40;;;;;;;6.90;4.62;;;;;;;15.29;49.38;100638.17;1740734;80;21769;-75
2022/09/06 07:36:08;;;;;;;9.18;4.50;;;;;;;15.41;49.46;100634.58;1739593;80;21588;-71
2022/09/06 07:38:36;;;;;;;4.62;3.65;;;;;;;15.52;49.20;100636.02;1749181;80;21013;-79
2022/09/06 07:41:08;;;;;;;5.10;3.02;;;;;;;15.65;48.72;100634.09;1741597;81;21572;-79
2022/09/06 07:43:35;;;;;;;5.92;3.30;;;;;;;15.69;48.27;100640.24;1738593;80;21007;-79
2022/09/06 07:46:11;;;;;;;6.95;4.20;;;;;;;15.75;48.11;100638.72;1737365;80;21806;-77
2022/09/06 07:48:40;;;;;;;5.22;4.15;;;;;;;15.84;48.10;100638.98;1736716;80;21092;-78
2022/09/06 07:51:12;;;;;;;6.92;4.33;;;;;;;15.92;48.04;100638.91;1738635;80;21058;-77
2022/09/06 07:53:40;;;;;;;5.80;4.42;;;;;;;15.96;47.68;100636.70;1736512;80;21081;-79
2022/09/06 07:56:10;;;;;;;8.88;4.62;;;;;;;15.95;47.25;100632.86;1740950;82;21007;-79
2022/09/06 07:58:38;;;;;;;6.42;4.60;;;;;;;15.96;47.39;100635.88;1737591;82;21834;-77
2022/09/06 08:01:29;;;;;;;7.53;5.62;;;;;;;16.05;47.24;100637.45;1744236;81;21093;-77
2022/09/06 08:04:01;;;;;;;7.08;5.42;;;;;;;16.12;47.20;100629.83;1753259;80;21043;-79
2022/09/06 08:06:30;;;;;;;6.00;5.08;;;;;;;16.27;47.02;100637.91;1751951;80;21018;-79
2022/09/06 08:08:59;;;;;;;6.95;4.90;;;;;;;16.38;46.58;100634.43;1750805;80;21063;-81
2022/09/06 08:11:29;;;;;;;8.03;6.17;;;;;;;16.47;46.13;100634.67;1746430;80;21144;-82
2022/09/06 08:13:56;;;;;;;6.62;4.97;;;;;;;16.46;46.03;100631.69;1754878;80;21025;-77
2022/09/06 08:16:26;;;;;;;4.92;3.75;;;;;;;16.49;46.11;100632.12;1748666;80;21043;-77
2022/09/06 08:18:55;;;;;;;5.45;4.05;;;;;;;16.59;45.03;100633.70;1749069;80;21025;-73
2022/09/06 08:21:27;;;;;;;5.85;4.22;;;;;;;16.66;44.54;100630.60;1752369;80;20994;-86
2022/09/06 08:23:57;;;;;;;5.20;3.12;;;;;;;16.74;44.21;100626.98;1751397;80;27123;-72
2022/09/06 08:26:24;;;;;;;4.47;3.52;;;;;;;16.83;43.78;100623.22;1745622;81;21100;-74
2022/09/06 08:28:58;;;;;;;4.80;3.52;;;;;;;16.98;43.53;100617.31;1750413;80;21093;-76
2022/09/06 08:31:27;;;;;;;3.65;2.80;;;;;;;17.13;42.97;100613.75;1748841;80;21146;-74
2022/09/06 08:33:54;;;;;;;3.50;2.55;;;;;;;17.28;42.53;100611.84;1748763;80;21493;-74
2022/09/06 08:36:20;;;;;;;3.47;2.40;;;;;;;17.42;41.74;100614.15;1750542;80;21220;-75
2022/09/06 08:38:47;;;;;;;2.30;2.10;;;;;;;17.49;41.57;100608.34;1751954;80;21030;-76
2022/09/06 08:41:39;;;;;;;3.22;2.22;;;;;;;17.57;41.50;100604.69;1722054;81;21550;-74
2022/09/06 08:44:11;;;;;;;1.95;1.70;;;;;;;17.60;41.17;100602.45;1750575;80;21169;-76
2022/09/06 08:47:09;;;;;;;2.20;1.82;;;;;;;17.57;40.32;100597.45;1741682;81;21018;-76
2022/09/06 08:49:51;;;;;;;4.03;2.95;;;;;;;17.56;40.60;100593.13;1742105;80;21892;-75
2022/09/06 08:52:49;;;;;;;4.55;3.08;;;;;;;17.68;40.96;100590.73;1746471;80;21029;-75
2022/09/06 08:55:48;;;;;;;5.33;3.47;;;;;;;17.90;40.69;100589.38;1749235;81;21061;-75
2022/09/06 08:58:32;;;;;;;4.92;2.98;;;;;;;17.89;41.18;100579.16;1751012;80;21468;-73
2022/09/06 09:01:06;;;;;;;4.05;3.00;;;;;;;17.87;40.95;100591.44;1730194;80;21067;-75
2022/09/06 09:03:35;;;;;;;2.72;2.15;;;;;;;17.96;41.16;100584.04;1728691;81;21087;-75
2022/09/06 09:06:04;;;;;;;3.22;2.50;;;;;;;18.32;40.48;100583.56;1719773;81;21055;-74
2022/09/06 09:09:11;;;;;;;3.98;2.60;;;;;;;18.71;39.66;100579.39;1725153;81;21020;-75
2022/09/06 09:11:38;;;;;;;2.37;2.17;;;;;;;18.95;39.29;100568.62;1716301;81;21111;-75
2022/09/06 09:14:10;;;;;;;2.92;2.55;;;;;;;19.11;39.00;100575.52;1686806;83;21078;-74
2022/09/06 09:16:36;;;;;;;2.20;1.85;;;;;;;19.11;38.68;100576.86;1667537;84;21274;-75
2022/09/06 09:19:04;;;;;;;2.22;1.92;;;;;;;19.10;38.46;100571.15;1659364;84;21424;-77
2022/09/06 09:21:35;;;;;;;2.52;2.33;;;;;;;19.10;38.20;100572.50;1667603;84;21073;-76
2022/09/06 09:24:06;;;;;;;2.65;2.45;;;;;;;19.10;38.11;100571.15;1662832;84;22182;-74
2022/09/06 09:27:09;;;;;;;7.28;6.53;;;;;;;18.96;38.15;100564.91;1692212;83;21592;-73
2022/09/06 09:32:44;;;;;;;8.78;7.15;;;;;;;18.37;40.05;100564.45;1863125;75;22690;-73
2022/09/06 09:35:32;;;;;;;8.80;6.75;;;;;;;18.09;40.42;100577.94;1823423;77;20969;-74
2022/09/06 09:38:11;;;;;;;8.15;6.12;;;;;;;17.82;40.73;100568.30;1815034;77;21249;-74
2022/09/06 09:41:02;;;;;;;8.48;6.28;;;;;;;17.57;40.61;100568.42;1817583;77;20965;-76
2022/09/06 09:43:41;;;;;;;7.37;6.47;;;;;;;17.33;40.71;100571.83;1803600;76;20978;-75
2022/09/06 09:46:23;;;;;;;6.95;5.58;;;;;;;17.19;41.12;100569.53;1803011;78;21501;-77
2022/09/06 09:49:15;;;;;;;7.72;6.25;;;;;;;17.16;41.04;100571.25;1804141;78;21616;-80
2022/09/06 09:51:48;;;;;;;8.18;6.20;;;;;;;17.14;41.17;100568.44;1818059;77;21203;-79
2022/09/06 09:54:21;;;;;;;9.85;7.12;;;;;;;17.17;41.19;100566.70;1792105;77;21004;-79
2022/09/06 09:56:54;;;;;;;13.88;9.73;;;;;;;17.19;41.25;100566.00;1812473;77;21595;-79
2022/09/06 09:59:34;;;;;;;16.73;12.28;;;;;;;17.18;41.40;100571.06;1806966;78;21103;-79
2022/09/06 10:02:01;;;;;;;15.65;12.47;;;;;;;17.13;41.63;100572.13;1835073;77;21041;-79
2022/09/06 10:04:36;;;;;;;15.70;12.58;;;;;;;17.08;41.67;100574.06;1860415;77;21054;-80
2022/09/06 10:07:17;;;;;;;17.15;12.88;;;;;;;17.05;41.73;100571.75;1863089;77;20971;-78
2022/09/06 10:10:03;;;;;;;16.87;13.15;;;;;;;17.04;41.88;100568.23;1797499;78;21005;-79
2022/09/06 10:12:38;;;;;;;16.50;12.33;;;;;;;17.07;41.71;100575.92;1795093;80;21009;-79
2022/09/06 10:15:07;;;;;;;19.42;14.80;;;;;;;17.07;41.90;100577.27;1815066;78;21005;-80
2022/09/06 10:17:44;;;;;;;25.57;16.82;;;;;;;17.08;42.02;100577.56;1817892;77;21199;-80
2022/09/06 10:20:11;;;;;;;25.50;19.25;;;;;;;17.03;42.04;100577.30;1802974;77;21057;-79
2022/09/06 10:22:51;;;;;;;28.85;22.52;;;;;;;16.95;42.33;100575.26;1798529;77;21001;-77
2022/09/06 10:25:38;;;;;;;34.38;25.70;;;;;;;16.92;42.37;100576.96;1825976;77;21084;-79
2022/09/06 10:28:19;;;;;;;35.40;25.97;;;;;;;16.86;42.30;100570.50;1818935;78;21001;-79
2022/09/06 10:30:58;;;;;;;44.00;33.98;;;;;;;16.81;42.31;100576.41;1810197;78;21223;-78
2022/09/06 10:33:47;;;;;;;43.02;31.93;;;;;;;16.77;42.33;100566.26;1800135;76;21072;-79
2022/09/06 10:36:17;;;;;;;41.30;28.67;;;;;;;16.70;42.45;100571.01;1855913;76;20982;-79
2022/09/06 10:39:17;;;;;;;42.27;31.87;;;;;;;16.69;42.59;100572.05;1866406;76;21056;-80
2022/09/06 10:41:49;;;;;;;44.42;31.97;;;;;;;16.71;42.71;100565.16;1817859;78;21530;-79
2022/09/06 10:44:45;;;;;;;43.78;31.12;;;;;;;16.75;42.82;100565.09;1748347;80;21228;-80
2022/09/06 10:47:13;;;;;;;45.23;31.68;;;;;;;16.80;42.85;100563.17;1776847;80;21009;-79
2022/09/06 10:49:45;;;;;;;43.90;32.45;;;;;;;16.88;43.13;100567.11;1786938;80;21069;-78
2022/09/06 10:52:16;;;;;;;44.55;32.83;;;;;;;17.02;43.09;100568.94;1761380;80;21049;-79
2022/09/06 10:54:46;;;;;;;42.58;33.30;;;;;;;17.21;43.27;100567.48;1778025;80;20990;-79
2022/09/06 10:57:24;;;;;;;44.67;32.93;;;;;;;17.46;42.91;100561.21;1784171;78;21238;-78
2022/09/06 10:59:54;;;;;;;41.92;33.23;;;;;;;17.74;42.40;100564.95;1772117;78;20987;-80
2022/09/06 11:02:46;;;;;;;40.15;30.77;;;;;;;18.02;41.71;100563.61;1756874;80;21010;-87
2022/09/06 11:05:21;;;;;;;36.68;28.87;;;;;;;18.19;41.60;100558.75;1773592;78;21057;-89
2022/09/06 11:07:59;;;;;;;43.70;32.45;;;;;;;18.31;41.10;100565.75;1758471;79;20947;-85
2022/09/06 11:10:37;;;;;;;48.70;35.20;;;;;;;18.39;41.15;100565.08;1770164;79;21449;-79
2022/09/06 11:13:16;;;;;;;44.63;35.15;;;;;;;18.43;41.09;100560.14;1743296;79;21478;-81
2022/09/06 11:16:07;;;;;;;40.35;29.82;;;;;;;18.42;40.88;100564.66;1762936;79;20951;-83
2022/09/06 11:18:59;;;;;;;38.48;29.30;;;;;;;18.33;40.64;100565.03;1778731;80;21124;-81
2022/09/06 11:22:11;;;;;;;45.05;33.28;;;;;;;18.15;40.26;100564.22;1777269;80;21186;-77
2022/09/06 11:25:08;;;;;;;57.08;41.70;;;;;;;17.97;40.61;100562.86;1775022;80;21139;-74
2022/09/06 11:27:40;;;;;;;68.07;51.70;;;;;;;17.76;41.01;100554.83;1759540;79;21030;-76
2022/09/06 11:30:15;;;;;;;73.45;54.98;;;;;;;17.56;41.52;100563.56;1762322;79;21053;-77
2022/09/06 11:32:49;;;;;;;79.70;58.33;;;;;;;17.36;42.01;100563.89;1743666;80;21085;-77
2022/09/06 11:35:34;;;;;;;79.17;59.33;;;;;;;17.17;42.48;100562.67;1757801;79;21114;-79
2022/09/06 11:38:05;;;;;;;86.97;65.17;;;;;;;16.98;43.06;100567.66;1757950;79;21891;-79
2022/09/06 11:40:37;;;;;;;97.70;67.90;;;;;;;16.84;43.44;100568.03;1757662;78;21092;-77
2022/09/06 11:43:08;;;;;;;97.47;70.92;;;;;;;16.77;43.74;100567.08;1770943;78;22026;-76
2022/09/06 11:45:52;;;;;;;90.60;70.78;;;;;;;16.71;43.96;100561.95;1751523;78;21065;-75
2022/09/06 11:48:33;;;;;;;;;;;;;;;16.69;44.07;100568.02;1768622;79;21053;-76
2022/09/06 11:51:09;;;;;;;96.02;70.52;;;;;;;16.69;43.96;100568.02;1794235;79;21147;-78
2022/09/06 11:53:59;;;;;;;89.62;65.15;;;;;;;16.68;44.01;100559.63;1753722;81;21048;-78